createdAt,value
2022-10-22T00:01:52.377Z,98309.22
2022-10-22T00:04:18.870Z,98311.03
2022-10-22T00:06:45.359Z,98311.59
2022-10-22T00:09:13.667Z,98310.91
2022-10-22T00:11:49.533Z,98312.97
2022-10-22T00:14:20.597Z,98312.19
2022-10-22T00:17:11.160Z,98303.88
2022-10-22T00:19:39.009Z,98303.09
2022-10-22T00:22:05.774Z,98306.28
2022-10-22T00:24:33.135Z,98311.97
2022-10-22T00:26:59.747Z,98317.78
2022-10-22T00:29:26.204Z,98321.03
2022-10-22T00:31:52.738Z,98328.34
2022-10-22T00:34:21.208Z,98338.06
2022-10-22T00:36:49.175Z,98331.16
2022-10-22T00:39:18.486Z,98328.09
2022-10-22T00:41:46.315Z,98327.78
2022-10-22T00:44:50.797Z,98331.03
2022-10-22T00:47:18.630Z,98331.50
2022-10-22T00:49:46.750Z,98333.00
2022-10-22T00:52:14.287Z,98327.53
2022-10-22T00:54:41.275Z,98331.97
2022-10-22T00:57:07.801Z,98334.56
2022-10-22T00:59:34.452Z,98332.63
2022-10-22T01:02:00.918Z,98332.75
2022-10-22T01:04:27.433Z,98332.13
2022-10-22T01:06:54.016Z,98331.06
2022-10-22T01:09:32.634Z,98324.91
2022-10-22T01:12:06.915Z,98318.56
2022-10-22T01:14:45.558Z,98320.72
2022-10-22T01:17:24.112Z,98324.59
2022-10-22T01:19:57.958Z,98318.69
2022-10-22T01:22:33.227Z,98316.44
2022-10-22T01:25:13.267Z,98306.97
2022-10-22T01:27:50.218Z,98312.31
2022-10-22T01:30:18.474Z,98319.44
2022-10-22T01:32:55.245Z,98316.94
2022-10-22T01:35:29.303Z,98302.72
2022-10-22T01:37:59.726Z,98308.91
2022-10-22T01:40:28.235Z,98303.50
2022-10-22T01:43:03.840Z,98307.81
2022-10-22T01:45:35.509Z,98308.63
2022-10-22T01:48:21.017Z,98300.28
2022-10-22T01:51:26.585Z,98294.09
2022-10-22T01:53:52.942Z,98291.59
2022-10-22T01:56:36.810Z,98286.91
2022-10-22T01:59:12.787Z,98279.06
2022-10-22T02:02:00.842Z,98269.66
2022-10-22T02:04:53.654Z,98270.56
2022-10-22T02:07:24.826Z,98267.88
2022-10-22T02:09:53.937Z,98273.56
2022-10-22T02:12:22.761Z,98286.13
2022-10-22T02:14:50.768Z,98283.50
2022-10-22T02:17:21.341Z,98265.72
2022-10-22T02:19:56.090Z,98268.81
2022-10-22T02:22:24.613Z,98278.00
2022-10-22T02:24:51.121Z,98265.59
2022-10-22T02:27:27.706Z,98273.34
2022-10-22T02:30:11.159Z,98284.28
2022-10-22T02:33:07.266Z,98287.13
2022-10-22T02:35:35.031Z,98294.41
2022-10-22T02:38:02.058Z,98303.88
2022-10-22T02:40:31.090Z,98306.50
2022-10-22T02:42:57.991Z,98297.88
2022-10-22T02:45:25.101Z,98290.81
2022-10-22T02:47:51.937Z,98289.56
2022-10-22T02:50:18.423Z,98296.72
2022-10-22T02:52:44.854Z,98299.00
2022-10-22T02:55:11.873Z,98285.47
2022-10-22T02:57:38.813Z,98287.38
2022-10-22T03:00:07.793Z,98290.78
2022-10-22T03:02:34.327Z,98288.06
2022-10-22T03:05:01.085Z,98288.38
2022-10-22T03:07:27.524Z,98291.72
2022-10-22T03:09:53.990Z,98285.69
2022-10-22T03:12:20.583Z,98289.91
2022-10-22T03:14:46.998Z,98285.94
2022-10-22T03:17:13.462Z,98297.88
2022-10-22T03:19:40.038Z,98303.34
2022-10-22T03:22:12.541Z,98310.25
2022-10-22T03:24:44.204Z,98309.78
2022-10-22T03:27:15.025Z,98306.97
2022-10-22T03:29:42.565Z,98318.00
2022-10-22T03:32:09.189Z,98334.25
2022-10-22T03:34:35.662Z,98339.72
2022-10-22T03:37:02.508Z,98340.66
2022-10-22T03:39:32.032Z,98338.03
2022-10-22T03:41:58.899Z,98326.00
2022-10-22T03:44:26.393Z,98341.69
2022-10-22T03:46:53.131Z,98354.19
2022-10-22T03:49:19.620Z,98359.75
2022-10-22T03:51:46.043Z,98369.19
2022-10-22T03:54:12.547Z,98381.91
2022-10-22T03:56:39.262Z,98374.63
2022-10-22T03:59:05.673Z,98383.28
2022-10-22T04:01:32.274Z,98382.47
2022-10-22T04:03:59.091Z,98386.34
2022-10-22T04:06:25.613Z,98390.91
2022-10-22T04:08:52.324Z,98392.03
2022-10-22T04:11:18.782Z,98398.84
2022-10-22T04:13:45.442Z,98396.25
2022-10-22T04:16:18.786Z,98399.56
2022-10-22T04:18:47.092Z,98397.84
2022-10-22T04:21:16.574Z,98400.69
2022-10-22T04:23:52.531Z,98413.63
2022-10-22T04:26:19.956Z,98412.38
2022-10-22T04:28:48.318Z,98414.44
2022-10-22T04:31:18.378Z,98411.47
2022-10-22T04:33:45.088Z,98406.38
2022-10-22T04:36:18.222Z,98412.06
2022-10-22T04:38:47.111Z,98418.69
2022-10-22T04:41:22.794Z,98415.16
2022-10-22T04:43:49.733Z,98414.00
2022-10-22T04:46:17.680Z,98420.00
2022-10-22T04:48:45.774Z,98430.81
2022-10-22T04:51:15.625Z,98428.22
2022-10-22T04:53:42.428Z,98434.72
2022-10-22T04:56:09.191Z,98431.06
2022-10-22T04:58:35.927Z,98431.97
2022-10-22T05:01:13.334Z,98438.66
2022-10-22T05:03:40.633Z,98432.09
2022-10-22T05:06:08.238Z,98435.25
2022-10-22T05:08:35.014Z,98433.44
2022-10-22T05:11:01.760Z,98434.81
2022-10-22T05:13:28.383Z,98432.53
2022-10-22T05:15:54.984Z,98428.91
2022-10-22T05:18:22.626Z,98427.31
2022-10-22T05:20:49.382Z,98437.09
2022-10-22T05:23:15.894Z,98440.38
2022-10-22T05:25:42.648Z,98441.97
2022-10-22T05:28:09.281Z,98444.38
2022-10-22T05:30:35.856Z,98435.84
2022-10-22T05:33:02.665Z,98440.63
2022-10-22T05:35:29.320Z,98442.56
2022-10-22T05:40:30.494Z,98448.13
2022-10-22T05:42:58.627Z,98453.09
2022-10-22T05:45:25.119Z,98452.44
2022-10-22T05:47:51.709Z,98453.22
2022-10-22T05:50:18.261Z,98453.22
2022-10-22T05:52:44.853Z,98452.06
2022-10-22T05:55:11.459Z,98452.19
2022-10-22T05:57:39.835Z,98448.09
2022-10-22T06:00:07.158Z,98457.41
2022-10-22T06:02:33.722Z,98459.31
2022-10-22T06:05:00.330Z,98464.53
2022-10-22T06:07:26.895Z,98482.03
2022-10-22T06:09:53.774Z,98505.06
2022-10-22T06:12:20.236Z,98506.09
2022-10-22T06:14:46.721Z,98522.34
2022-10-22T06:17:13.428Z,98529.16
2022-10-22T06:19:39.967Z,98545.63
2022-10-22T06:22:06.549Z,98546.00
2022-10-22T06:24:33.284Z,98545.53
2022-10-22T06:26:59.793Z,98549.72
2022-10-22T06:29:26.427Z,98543.19
2022-10-22T06:31:52.919Z,98545.09
2022-10-22T06:34:19.613Z,98544.78
2022-10-22T06:36:46.752Z,98545.81
2022-10-22T06:39:15.409Z,98545.94
2022-10-22T06:41:41.972Z,98546.25
2022-10-22T06:44:15.165Z,98551.69
2022-10-22T06:46:43.563Z,98560.44
2022-10-22T06:49:14.340Z,98564.09
2022-10-22T06:51:41.531Z,98566.84
2022-10-22T06:54:08.522Z,98570.44
2022-10-22T06:56:35.209Z,98557.75
2022-10-22T06:59:02.119Z,98553.91
2022-10-22T07:01:32.950Z,98563.88
2022-10-22T07:03:59.714Z,98568.09
2022-10-22T07:06:27.843Z,98573.09
2022-10-22T07:08:55.804Z,98574.22
2022-10-22T07:11:25.210Z,98586.03
2022-10-22T07:13:54.658Z,98597.72
2022-10-22T07:16:21.583Z,98600.22
2022-10-22T07:18:48.570Z,98617.34
2022-10-22T07:21:17.835Z,98624.75
2022-10-22T07:23:45.059Z,98623.25
2022-10-22T07:26:16.405Z,98610.78
2022-10-22T07:28:43.525Z,98612.81
2022-10-22T07:31:12.243Z,98609.28
2022-10-22T07:33:38.980Z,98616.31
2022-10-22T07:36:08.591Z,98620.97
2022-10-22T07:38:35.876Z,98617.91
2022-10-22T07:41:03.012Z,98624.75
2022-10-22T07:43:29.885Z,98627.97
2022-10-22T07:45:56.505Z,98621.13
2022-10-22T07:48:23.649Z,98626.97
2022-10-22T07:50:51.613Z,98627.66
2022-10-22T07:53:18.327Z,98621.66
2022-10-22T07:55:48.790Z,98632.56
2022-10-22T07:58:15.310Z,98626.78
2022-10-22T08:00:41.885Z,98628.13
2022-10-22T08:03:11.184Z,98626.53
2022-10-22T08:05:39.249Z,98624.28
2022-10-22T08:08:08.729Z,98633.22
2022-10-22T08:10:35.322Z,98637.31
2022-10-22T08:13:02.166Z,98632.97
2022-10-22T08:15:29.322Z,98641.66
2022-10-22T08:17:55.810Z,98645.97
2022-10-22T08:20:22.405Z,98650.44
2022-10-22T08:22:48.979Z,98658.50
2022-10-22T08:25:16.411Z,98663.31
2022-10-22T08:27:43.313Z,98675.34
2022-10-22T08:30:10.983Z,98668.75
2022-10-22T08:32:38.152Z,98661.59
2022-10-22T08:35:06.421Z,98678.09
2022-10-22T08:37:33.111Z,98680.47
2022-10-22T08:39:59.702Z,98684.63
2022-10-22T08:42:38.663Z,98682.53
2022-10-22T08:45:26.791Z,98676.72
2022-10-22T08:48:05.901Z,98676.13
2022-10-22T08:50:44.026Z,98676.56
2022-10-22T08:53:17.400Z,98677.13
2022-10-22T08:55:44.881Z,98673.91
2022-10-22T08:58:27.724Z,98672.13
2022-10-22T09:01:12.878Z,98683.31
2022-10-22T09:04:09.056Z,98678.31
2022-10-22T09:06:38.533Z,98678.56
2022-10-22T09:09:12.773Z,98696.91
2022-10-22T09:11:44.600Z,98692.06
2022-10-22T09:14:16.782Z,98685.88
2022-10-22T09:17:35.325Z,98690.63
2022-10-22T09:20:37.066Z,98693.09
2022-10-22T09:23:30.644Z,98691.34
2022-10-22T09:25:57.969Z,98691.91
2022-10-22T09:28:26.179Z,98682.03
2022-10-22T09:30:52.980Z,98689.66
2022-10-22T09:33:30.961Z,98690.16
2022-10-22T09:36:05.653Z,98693.16
2022-10-22T09:38:44.610Z,98685.97
2022-10-22T09:41:12.553Z,98686.25
2022-10-22T09:43:39.265Z,98692.91
2022-10-22T09:46:08.601Z,98698.00
2022-10-22T09:48:39.209Z,98698.31
2022-10-22T09:51:38.364Z,98696.28
2022-10-22T09:54:19.341Z,98703.72
2022-10-22T09:56:57.928Z,98698.28
2022-10-22T09:59:33.715Z,98698.44
2022-10-22T10:02:38.726Z,98705.00
2022-10-22T10:05:17.711Z,98702.25
2022-10-22T10:07:44.729Z,98702.25
2022-10-22T10:10:43.721Z,98702.53
2022-10-22T10:13:33.562Z,98698.78
2022-10-22T10:16:15.742Z,98696.59
2022-10-22T10:19:00.621Z,98699.28
2022-10-22T10:21:54.351Z,98695.34
2022-10-22T10:24:39.515Z,98709.16
2022-10-22T10:27:25.667Z,98700.34
2022-10-22T10:30:17.056Z,98701.03
2022-10-22T10:32:55.859Z,98697.72
2022-10-22T10:35:26.966Z,98701.56
2022-10-22T10:40:37.847Z,98705.13
2022-10-22T10:43:11.048Z,98700.41
2022-10-22T10:46:09.377Z,98707.22
2022-10-22T10:48:56.576Z,98708.84
2022-10-22T10:51:33.216Z,98712.13
2022-10-22T10:54:24.554Z,98703.94
2022-10-22T10:57:03.074Z,98703.13
2022-10-22T11:00:02.076Z,98717.78
2022-10-22T11:05:44.238Z,98712.06
2022-10-22T11:08:17.458Z,98706.09
2022-10-22T11:10:52.844Z,98711.91
2022-10-22T11:13:31.706Z,98717.69
2022-10-22T11:16:10.753Z,98715.50
2022-10-22T11:18:42.139Z,98705.22
2022-10-22T11:21:19.702Z,98716.56
2022-10-22T11:23:56.990Z,98717.53
2022-10-22T11:26:38.988Z,98713.63
2022-10-22T11:29:13.414Z,98704.16
2022-10-22T11:31:41.661Z,98709.47
2022-10-22T11:34:34.461Z,98713.63
2022-10-22T11:37:04.953Z,98711.00
2022-10-22T11:39:53.805Z,98706.25
2022-10-22T11:42:45.237Z,98709.53
2022-10-22T11:45:15.448Z,98706.19
2022-10-22T11:48:11.409Z,98708.63
2022-10-22T11:50:42.297Z,98706.91
2022-10-22T11:53:15.203Z,98703.69
2022-10-22T11:55:55.430Z,98703.03
2022-10-22T11:58:28.298Z,98713.41
2022-10-22T12:01:10.139Z,98701.59
2022-10-22T12:03:44.103Z,98713.09
2022-10-22T12:06:17.134Z,98704.44
2022-10-22T12:08:52.845Z,98708.94
2022-10-22T12:11:19.410Z,98709.13
2022-10-22T12:13:58.789Z,98704.97
2022-10-22T12:16:37.677Z,98697.06
2022-10-22T12:19:10.592Z,98708.25
2022-10-22T12:21:48.881Z,98707.66
2022-10-22T12:24:25.233Z,98706.63
2022-10-22T12:26:53.610Z,98703.81
2022-10-22T12:29:23.779Z,98689.34
2022-10-22T12:31:50.689Z,98701.69
2022-10-22T12:34:22.140Z,98693.03
2022-10-22T12:36:51.808Z,98688.66
2022-10-22T12:39:21.573Z,98687.63
2022-10-22T12:41:48.677Z,98691.91
2022-10-22T12:44:17.737Z,98690.31
2022-10-22T12:46:47.007Z,98685.31
2022-10-22T12:49:22.750Z,98686.38
2022-10-22T12:51:49.713Z,98688.72
2022-10-22T12:54:21.837Z,98690.59
2022-10-22T12:56:48.778Z,98689.25
2022-10-22T12:59:23.877Z,98685.53
2022-10-22T13:01:55.028Z,98685.78
2022-10-22T13:04:36.022Z,98682.38
2022-10-22T13:07:18.375Z,98689.47
2022-10-22T13:09:55.698Z,98684.19
2022-10-22T13:12:36.594Z,98687.38
2022-10-22T13:15:21.264Z,98682.41
2022-10-22T13:17:49.860Z,98682.91
2022-10-22T13:20:22.638Z,98678.41
2022-10-22T13:23:06.309Z,98677.59
2022-10-22T13:25:40.549Z,98678.09
2022-10-22T13:28:09.421Z,98680.47
2022-10-22T13:30:37.959Z,98680.47
2022-10-22T13:33:54.587Z,98675.16
2022-10-22T13:36:21.970Z,98675.44
2022-10-22T13:38:54.360Z,98673.28
2022-10-22T13:41:32.304Z,98674.34
2022-10-22T13:43:59.501Z,98670.41
2022-10-22T13:46:27.291Z,98674.59
2022-10-22T13:48:56.304Z,98674.09
2022-10-22T13:51:33.430Z,98674.09
2022-10-22T13:54:03.406Z,98674.09
2022-10-22T13:56:33.196Z,98670.13
2022-10-22T13:59:00.162Z,98679.09
2022-10-22T14:01:29.451Z,98680.41
2022-10-22T14:04:02.207Z,98676.19
2022-10-22T14:06:31.635Z,98671.19
2022-10-22T14:09:02.399Z,98678.88
2022-10-22T14:11:32.724Z,98672.50
2022-10-22T14:14:02.551Z,98674.31
2022-10-22T14:16:34.416Z,98668.00
2022-10-22T14:19:14.340Z,98672.97
2022-10-22T14:21:41.066Z,98672.97
2022-10-22T14:24:12.982Z,98670.34
2022-10-22T14:26:42.389Z,98661.91
2022-10-22T14:29:13.142Z,98667.97
2022-10-22T14:31:42.399Z,98666.91
2022-10-22T14:34:14.281Z,98671.13
2022-10-22T14:36:45.257Z,98671.63
2022-10-22T14:39:13.688Z,98664.03
2022-10-22T14:41:41.925Z,98664.53
2022-10-22T14:44:14.350Z,98671.41
2022-10-22T14:46:44.213Z,98674.59
2022-10-22T14:49:17.789Z,98682.56
2022-10-22T14:51:47.447Z,98690.22
2022-10-22T14:54:14.358Z,98689.72
2022-10-22T14:56:41.122Z,98685.25
2022-10-22T14:59:07.922Z,98683.41
2022-10-22T15:01:36.665Z,98692.34
2022-10-22T15:04:03.557Z,98694.75
2022-10-22T15:06:30.321Z,98694.25
2022-10-22T15:08:57.373Z,98692.38
2022-10-22T15:11:24.290Z,98694.53
2022-10-22T15:13:53.698Z,98687.16
2022-10-22T15:16:23.048Z,98697.19
2022-10-22T15:18:49.892Z,98697.44
2022-10-22T15:21:23.331Z,98696.66
2022-10-22T15:23:53.505Z,98704.53
2022-10-22T15:26:21.315Z,98700.53
2022-10-22T15:28:51.063Z,98691.53
2022-10-22T15:31:54.670Z,98698.03
2022-10-22T15:34:23.601Z,98698.94
2022-10-22T15:36:51.324Z,98699.41
2022-10-22T15:39:18.170Z,98710.69
2022-10-22T15:41:48.986Z,98703.22
2022-10-22T15:44:19.550Z,98709.69
2022-10-22T15:49:18.425Z,98721.13
2022-10-22T15:51:45.298Z,98733.00
2022-10-22T15:54:17.453Z,98729.31
2022-10-22T15:56:44.773Z,98732.22
2022-10-22T15:59:13.382Z,98743.81
2022-10-22T16:01:41.122Z,98741.97
2022-10-22T16:04:08.673Z,98746.63
2022-10-22T16:06:48.654Z,98753.19
2022-10-22T16:09:19.748Z,98747.41
2022-10-22T16:11:47.515Z,98752.59
2022-10-22T16:14:15.666Z,98756.75
2022-10-22T16:16:45.018Z,98765.06
2022-10-22T16:19:13.010Z,98760.03
2022-10-22T16:21:43.375Z,98765.72
2022-10-22T16:24:10.909Z,98761.97
2022-10-22T16:26:37.647Z,98770.81
2022-10-22T16:29:11.077Z,98763.56
2022-10-22T16:31:40.457Z,98769.41
2022-10-22T16:34:10.514Z,98775.91
2022-10-22T16:36:38.487Z,98776.84
2022-10-22T16:39:07.838Z,98776.75
2022-10-22T16:41:36.524Z,98781.84
2022-10-22T16:44:07.965Z,98788.75
2022-10-22T16:46:39.636Z,98791.00
2022-10-22T16:49:10.324Z,98790.91
2022-10-22T16:51:39.064Z,98798.22
2022-10-22T16:54:08.399Z,98794.91
2022-10-22T16:56:40.928Z,98798.22
2022-10-22T16:59:08.143Z,98793.44
2022-10-22T17:01:40.366Z,98796.09
2022-10-22T17:04:10.824Z,98802.13
2022-10-22T17:06:40.037Z,98804.53
2022-10-22T17:09:14.956Z,98802.94
2022-10-22T17:11:42.666Z,98806.03
2022-10-22T17:14:12.101Z,98808.81
2022-10-22T17:16:39.271Z,98800.78
2022-10-22T17:19:21.776Z,98811.38
2022-10-22T17:21:50.126Z,98807.00
2022-10-22T17:24:20.858Z,98812.06
2022-10-22T17:27:00.400Z,98803.47
2022-10-22T17:29:27.377Z,98803.28
2022-10-22T17:31:57.029Z,98810.44
2022-10-22T17:34:24.155Z,98804.97
2022-10-22T17:36:50.928Z,98806.22
2022-10-22T17:39:18.764Z,98813.78
2022-10-22T17:41:46.170Z,98815.63
2022-10-22T17:44:16.284Z,98820.94
2022-10-22T17:46:46.316Z,98818.56
2022-10-22T17:49:21.045Z,98815.72
2022-10-22T17:51:50.617Z,98812.78
2022-10-22T17:54:17.623Z,98810.88
2022-10-22T17:56:48.665Z,98809.84
2022-10-22T17:59:19.147Z,98819.19
2022-10-22T18:01:47.683Z,98806.56
2022-10-22T18:04:19.524Z,98828.81
2022-10-22T18:06:59.080Z,98818.09
2022-10-22T18:09:26.539Z,98830.63
2022-10-22T18:11:54.735Z,98825.72
2022-10-22T18:14:24.358Z,98827.31
2022-10-22T18:16:51.684Z,98814.13
2022-10-22T18:19:26.102Z,98822.53
2022-10-22T18:21:53.038Z,98816.81
2022-10-22T18:24:20.069Z,98823.19
2022-10-22T18:26:46.938Z,98821.81
2022-10-22T18:29:18.841Z,98830.72
2022-10-22T18:31:49.131Z,98837.53
2022-10-22T18:34:18.896Z,98833.00
2022-10-22T18:36:48.636Z,98833.66
2022-10-22T18:39:16.319Z,98836.75
2022-10-22T18:41:50.947Z,98839.69
2022-10-22T18:44:20.568Z,98837.63
2022-10-22T18:46:47.387Z,98833.81
2022-10-22T18:49:18.925Z,98841.75
2022-10-22T18:51:48.785Z,98840.03
2022-10-22T18:54:23.106Z,98840.28
2022-10-22T18:56:50.559Z,98840.13
2022-10-22T18:59:20.922Z,98844.84
2022-10-22T19:01:47.788Z,98846.00
2022-10-22T19:04:14.917Z,98849.28
2022-10-22T19:06:45.350Z,98853.72
2022-10-22T19:09:16.279Z,98855.41
2022-10-22T19:11:44.018Z,98854.94
2022-10-22T19:14:13.363Z,98858.00
2022-10-22T19:16:40.007Z,98854.59
2022-10-22T19:19:08.122Z,98857.41
2022-10-22T19:21:35.450Z,98859.22
2022-10-22T19:24:05.461Z,98861.25
2022-10-22T19:26:34.833Z,98861.03
2022-10-22T19:29:01.914Z,98864.81
2022-10-22T19:31:32.237Z,98868.06
2022-10-22T19:34:03.343Z,98861.59
2022-10-22T19:36:32.641Z,98862.63
2022-10-22T19:39:00.270Z,98864.31
2022-10-22T19:41:29.017Z,98852.19
2022-10-22T19:43:57.513Z,98854.22
2022-10-22T19:46:26.442Z,98864.25
2022-10-22T19:48:56.303Z,98863.81
2022-10-22T19:51:27.559Z,98866.44
2022-10-22T19:54:08.973Z,98866.63
2022-10-22T19:56:37.733Z,98859.09
2022-10-22T19:59:05.295Z,98866.56
2022-10-22T20:01:32.227Z,98875.19
2022-10-22T20:04:01.852Z,98862.66
2022-10-22T20:06:29.474Z,98876.16
2022-10-22T20:08:56.476Z,98863.22
2022-10-22T20:11:28.357Z,98868.06
2022-10-22T20:13:56.702Z,98866.84
2022-10-22T20:16:25.033Z,98866.78
2022-10-22T20:18:52.743Z,98867.84
2022-10-22T20:21:20.461Z,98871.59
2022-10-22T20:23:48.189Z,98876.53
2022-10-22T20:26:14.931Z,98872.28
2022-10-22T20:28:41.625Z,98870.66
2022-10-22T20:31:10.338Z,98875.53
2022-10-22T20:33:37.126Z,98872.53
2022-10-22T20:36:07.382Z,98863.50
2022-10-22T20:38:34.558Z,98876.75
2022-10-22T20:41:07.490Z,98875.34
2022-10-22T20:43:34.719Z,98873.94
2022-10-22T20:46:01.994Z,98876.41
2022-10-22T20:48:31.312Z,98873.78
2022-10-22T20:50:59.517Z,98870.47
2022-10-22T20:53:28.155Z,98871.25
2022-10-22T20:55:59.426Z,98871.03
2022-10-22T20:58:27.710Z,98866.03
2022-10-22T21:00:55.192Z,98866.22
2022-10-22T21:03:22.404Z,98860.28
2022-10-22T21:05:49.272Z,98865.06
2022-10-22T21:08:18.703Z,98872.19
2022-10-22T21:10:46.545Z,98880.38
2022-10-22T21:13:13.864Z,98880.03
2022-10-22T21:15:40.802Z,98878.84
2022-10-22T21:18:08.378Z,98878.91
2022-10-22T21:20:35.138Z,98882.22
2022-10-22T21:23:02.225Z,98887.06
2022-10-22T21:25:28.995Z,98887.31
2022-10-22T21:27:56.066Z,98877.84
2022-10-22T21:30:22.981Z,98888.22
2022-10-22T21:32:50.019Z,98880.19
2022-10-22T21:35:16.668Z,98886.88
2022-10-22T21:37:43.518Z,98886.66
2022-10-22T21:40:11.100Z,98886.03
2022-10-22T21:42:37.702Z,98889.69
2022-10-22T21:45:08.020Z,98877.94
2022-10-22T21:47:38.865Z,98885.34
2022-10-22T21:50:06.173Z,98878.53
2022-10-22T21:52:32.870Z,98884.72
2022-10-22T21:55:01.841Z,98872.66
2022-10-22T21:57:28.578Z,98880.28
2022-10-22T21:59:55.377Z,98876.91
2022-10-22T22:02:22.227Z,98876.13
2022-10-22T22:04:54.846Z,98868.41
2022-10-22T22:07:22.135Z,98869.06
2022-10-22T22:09:50.184Z,98867.25
2022-10-22T22:12:18.218Z,98869.84
2022-10-22T22:14:45.052Z,98870.22
2022-10-22T22:17:11.857Z,98869.06
2022-10-22T22:19:39.096Z,98876.41
2022-10-22T22:22:08.600Z,98870.97
2022-10-22T22:24:35.547Z,98872.22
2022-10-22T22:27:02.227Z,98868.03
2022-10-22T22:29:28.934Z,98858.19
2022-10-22T22:31:55.854Z,98860.78
2022-10-22T22:34:22.667Z,98853.75
2022-10-22T22:36:52.603Z,98856.38
2022-10-22T22:39:23.825Z,98858.81
2022-10-22T22:41:50.930Z,98851.84
2022-10-22T22:44:20.433Z,98858.88
2022-10-22T22:46:47.107Z,98861.91
2022-10-22T22:49:14.160Z,98853.50
2022-10-22T22:51:41.731Z,98853.22
2022-10-22T22:54:10.061Z,98843.47
2022-10-22T22:56:37.654Z,98843.25
2022-10-22T22:59:05.606Z,98833.41
2022-10-22T23:01:34.698Z,98826.63
2022-10-22T23:04:11.039Z,98826.63
2022-10-22T23:06:38.042Z,98828.09
2022-10-22T23:09:07.441Z,98825.66
2022-10-22T23:11:34.561Z,98820.38
2022-10-22T23:14:04.195Z,98824.03
2022-10-22T23:16:34.591Z,98826.59
2022-10-22T23:19:02.543Z,98824.41
2022-10-22T23:21:34.595Z,98814.97
2022-10-22T23:24:04.592Z,98823.84
2022-10-22T23:26:36.059Z,98826.44
2022-10-22T23:29:08.938Z,98821.22
2022-10-22T23:31:35.801Z,98825.41
2022-10-22T23:34:02.596Z,98829.03
2022-10-22T23:36:29.621Z,98824.19
2022-10-22T23:38:59.368Z,98827.66
2022-10-22T23:41:26.182Z,98826.28
2022-10-22T23:43:52.865Z,98829.50
2022-10-22T23:46:19.714Z,98832.72
2022-10-22T23:48:46.554Z,98849.16
2022-10-22T23:51:15.509Z,98849.78
2022-10-22T23:53:43.330Z,98850.44
2022-10-22T23:56:13.292Z,98846.06
2022-10-22T23:58:40.221Z,98842.66
